Аэропорт: Саратов-Центральный. Саратов

ICAO: UWSS

METAR:
2018/09/23 11:00
UWSS 231100Z 19004G09MPS CAVOK 22/12 Q1016 R12/010095 NOSIG RMK QFE750
METAR:
2016/08/14 06:12
TAF TAF UWSS 140500Z 1406/1418 03003MPS 9999 SCT040CB 
      TEMPO 1406/1418 VRB18MPS 2100 -TSRAGR SQ BKN007 BKN030CB